Time;durP1;ratioP1;P1;durP2;ratioP2;P2;SDS_P1;SDS_P2;PMS_P1;PMS_P2;Temp;Humidity;BMP_temperature;BMP_pressure;BME280_temperature;BME280_humidity;BME280_pressure;Samples;Min_cycle;Max_cycle;Signal;HPM_P1;HPM_P2
2021/12/09 00:00:12;;;;;;;9.27;4.35;;;-14.00;99.90;;;;;;4837032;29;20924;-83
2021/12/09 00:02:40;;;;;;;12.10;4.60;;;-13.80;99.90;;;;;;4833242;29;20422;-86
2021/12/09 00:05:11;;;;;;;10.13;4.47;;;-13.80;99.90;;;;;;4833234;29;20414;-84
2021/12/09 00:07:42;;;;;;;9.95;4.55;;;-13.80;99.90;;;;;;4831882;29;20437;-85
2021/12/09 00:10:13;;;;;;;8.95;4.35;;;-14.00;99.90;;;;;;4830242;29;21639;-83
2021/12/09 00:12:40;;;;;;;11.33;4.70;;;-14.10;99.90;;;;;;4833643;29;20510;-84
2021/12/09 00:15:08;;;;;;;11.15;4.90;;;-13.80;99.90;;;;;;4831641;29;20888;-84
2021/12/09 00:17:36;;;;;;;10.48;4.35;;;-13.80;99.90;;;;;;4840284;29;20406;-85
2021/12/09 00:20:05;;;;;;;11.10;4.70;;;-13.80;99.90;;;;;;4845708;29;20968;-85
2021/12/09 00:22:32;;;;;;;9.95;4.30;;;-13.90;99.90;;;;;;4836007;29;20411;-84
2021/12/09 00:25:00;;;;;;;10.10;4.38;;;-13.90;99.90;;;;;;4837461;29;20446;-84
2021/12/09 00:27:27;;;;;;;11.77;4.80;;;-13.90;99.90;;;;;;4831468;29;20470;-84
2021/12/09 00:29:55;;;;;;;10.02;4.28;;;-14.00;99.90;;;;;;4832364;29;20923;-84
2021/12/09 00:32:23;;;;;;;12.73;4.80;;;-13.90;99.90;;;;;;4832645;29;20444;-84
2021/12/09 00:34:51;;;;;;;9.43;4.18;;;-13.80;99.90;;;;;;4834895;29;20410;-85
2021/12/09 00:37:33;;;;;;;10.15;4.20;;;-13.90;99.90;;;;;;4832060;29;20430;-84
2021/12/09 00:40:00;;;;;;;10.40;4.65;;;-14.10;99.90;;;;;;4838569;29;20842;-84
2021/12/09 00:42:28;;;;;;;11.63;4.50;;;-14.00;99.90;;;;;;4830660;29;20420;-84
2021/12/09 00:44:56;;;;;;;7.90;3.90;;;-13.90;99.90;;;;;;4832414;29;20442;-84
2021/12/09 00:47:24;;;;;;;8.93;4.20;;;-14.10;99.90;;;;;;4835199;29;20495;-84
2021/12/09 00:49:55;;;;;;;8.32;4.10;;;-14.10;99.90;;;;;;4828161;29;20420;-85
2021/12/09 00:52:26;;;;;;;11.48;4.53;;;-14.10;99.90;;;;;;4835719;29;20789;-84
2021/12/09 00:54:56;;;;;;;8.57;4.28;;;-13.90;99.90;;;;;;4832766;29;20437;-84
2021/12/09 00:57:24;;;;;;;9.73;4.27;;;-14.00;99.90;;;;;;4829165;29;20833;-84
2021/12/09 00:59:52;;;;;;;7.75;3.40;;;-14.00;99.90;;;;;;4837711;29;20413;-84
2021/12/09 01:02:20;;;;;;;9.65;3.95;;;-14.00;99.90;;;;;;4832856;29;20401;-84
2021/12/09 01:04:48;;;;;;;7.13;3.60;;;-13.90;99.90;;;;;;4833507;29;20420;-85
2021/12/09 01:07:15;;;;;;;7.10;3.63;;;-14.10;99.90;;;;;;4832276;29;20427;-84
2021/12/09 01:09:43;;;;;;;8.27;3.92;;;-14.10;99.90;;;;;;4833356;29;20422;-85
2021/12/09 01:12:11;;;;;;;7.82;3.53;;;-14.00;99.90;;;;;;4832070;29;20422;-85
2021/12/09 01:14:39;;;;;;;7.18;3.17;;;-14.00;99.90;;;;;;4832121;29;20402;-85
2021/12/09 01:17:10;;;;;;;7.22;2.95;;;-14.00;99.90;;;;;;4829973;29;20412;-85
2021/12/09 01:19:39;;;;;;;6.88;3.38;;;-14.00;99.90;;;;;;4831099;29;20480;-84
2021/12/09 01:22:07;;;;;;;7.78;3.38;;;-13.90;99.90;;;;;;4836958;29;20418;-85
2021/12/09 01:24:35;;;;;;;6.47;3.40;;;-13.90;99.90;;;;;;4831244;29;20426;-84
2021/12/09 01:27:04;;;;;;;6.22;3.45;;;-13.90;99.90;;;;;;4829872;29;20424;-84
2021/12/09 01:29:41;;;;;;;8.97;3.97;;;-13.90;99.90;;;;;;4829974;29;20532;-83
2021/12/09 01:32:12;;;;;;;8.35;3.70;;;-13.80;99.90;;;;;;4829962;29;20414;-84
2021/12/09 01:34:39;;;;;;;9.68;4.18;;;-13.80;99.90;;;;;;4830993;29;20416;-85
2021/12/09 01:37:07;;;;;;;6.85;3.65;;;-14.00;99.90;;;;;;4831174;29;20483;-86
2021/12/09 01:39:35;;;;;;;7.72;3.80;;;-13.80;99.90;;;;;;4830707;29;20443;-86
2021/12/09 01:42:03;;;;;;;9.60;3.58;;;-13.80;99.90;;;;;;4830444;29;20733;-84
2021/12/09 01:44:30;;;;;;;7.95;3.60;;;-13.80;99.90;;;;;;4829842;29;20780;-85
2021/12/09 01:46:58;;;;;;;7.35;3.60;;;-13.90;99.90;;;;;;4830726;29;20420;-84
2021/12/09 01:49:25;;;;;;;8.40;4.13;;;-13.90;99.90;;;;;;4831370;29;20435;-84
2021/12/09 01:51:53;;;;;;;6.70;3.65;;;-13.80;99.90;;;;;;4831526;29;20457;-84
2021/12/09 01:54:24;;;;;;;7.28;3.53;;;-13.80;99.90;;;;;;4837235;29;20402;-84
2021/12/09 01:56:52;;;;;;;8.70;3.72;;;-13.90;99.90;;;;;;4833182;29;20409;-84
2021/12/09 01:59:20;;;;;;;7.53;3.63;;;-13.80;99.90;;;;;;4823862;29;20432;-84
2021/12/09 02:01:47;;;;;;;7.90;3.50;;;-13.80;99.90;;;;;;4832605;29;21022;-83
2021/12/09 02:04:15;;;;;;;6.90;3.67;;;-13.90;99.90;;;;;;4837350;29;20422;-83
2021/12/09 02:06:43;;;;;;;7.95;3.83;;;-13.90;99.90;;;;;;4830758;29;20438;-85
2021/12/09 02:09:14;;;;;;;7.17;3.57;;;-14.00;99.90;;;;;;4828242;29;20763;-85
2021/12/09 02:11:41;;;;;;;7.50;3.25;;;-13.90;99.90;;;;;;4831727;29;20418;-84
2021/12/09 02:14:10;;;;;;;7.90;3.17;;;-13.90;99.90;;;;;;4832775;29;20997;-83
2021/12/09 02:16:39;;;;;;;8.75;3.72;;;-13.80;99.90;;;;;;4833487;29;20410;-83
2021/12/09 02:19:10;;;;;;;8.65;3.67;;;-13.80;99.90;;;;;;4832735;29;20402;-84
2021/12/09 02:21:39;;;;;;;7.43;3.70;;;-13.80;99.90;;;;;;4838009;29;20431;-84
2021/12/09 02:24:09;;;;;;;8.43;3.77;;;-13.80;99.90;;;;;;4853267;29;20410;-85
2021/12/09 02:26:41;;;;;;;9.07;4.07;;;-13.80;99.90;;;;;;4841815;29;20832;-85
2021/12/09 02:29:11;;;;;;;7.25;3.60;;;-13.70;99.90;;;;;;4840487;29;20424;-84
2021/12/09 02:31:40;;;;;;;9.77;3.83;;;-13.60;99.90;;;;;;4832534;29;20805;-84
2021/12/09 02:34:09;;;;;;;7.40;3.50;;;-13.70;99.90;;;;;;4833819;29;20515;-84
2021/12/09 02:36:42;;;;;;;8.65;4.13;;;-13.70;99.90;;;;;;4835938;29;20460;-85
2021/12/09 02:39:13;;;;;;;7.43;3.78;;;-13.60;99.90;;;;;;4833367;29;20759;-83
2021/12/09 02:41:41;;;;;;;8.02;3.78;;;-13.70;99.90;;;;;;4834316;29;20428;-84
2021/12/09 02:44:13;;;;;;;7.78;3.55;;;-13.70;99.90;;;;;;4832673;29;20419;-84
2021/12/09 02:46:41;;;;;;;8.38;3.55;;;-13.70;99.90;;;;;;4832498;29;20423;-85
2021/12/09 02:49:18;;;;;;;8.13;3.90;;;-13.80;99.90;;;;;;4835257;29;20514;-85
2021/12/09 02:51:47;;;;;;;9.18;3.58;;;-13.80;99.90;;;;;;4836572;29;20465;-84
2021/12/09 02:54:17;;;;;;;8.93;4.00;;;-13.80;99.90;;;;;;4839684;29;20435;-85
2021/12/09 02:56:48;;;;;;;8.38;3.60;;;-13.60;99.90;;;;;;4832297;29;20946;-86
2021/12/09 02:59:16;;;;;;;8.38;3.92;;;-13.80;99.90;;;;;;4840743;29;20429;-85
2021/12/09 03:04:47;;;;;;;7.90;3.90;;;-13.70;99.90;;;;;;4838402;29;20758;-84
2021/12/09 03:07:26;;;;;;;8.25;3.50;;;-13.60;99.90;;;;;;4840740;29;20490;-84
2021/12/09 03:09:59;;;;;;;8.15;3.47;;;-13.80;99.90;;;;;;4837877;29;20423;-84
2021/12/09 03:12:35;;;;;;;6.68;3.60;;;-13.70;99.90;;;;;;4841645;29;20423;-83
2021/12/09 03:15:05;;;;;;;7.35;3.63;;;-13.40;99.90;;;;;;4833799;29;20497;-84
2021/12/09 03:17:33;;;;;;;7.93;2.92;;;-13.40;99.90;;;;;;4833356;29;20438;-82
2021/12/09 03:20:02;;;;;;;6.60;3.00;;;-13.60;99.90;;;;;;4834793;29;20407;-85
2021/12/09 03:22:29;;;;;;;5.88;2.90;;;-13.60;99.90;;;;;;4831956;29;20419;-84
2021/12/09 03:24:57;;;;;;;7.30;3.40;;;-13.60;99.90;;;;;;4853819;29;20833;-84
2021/12/09 03:27:24;;;;;;;6.25;3.13;;;-13.60;99.90;;;;;;4835883;29;20414;-85
2021/12/09 03:29:52;;;;;;;6.60;2.93;;;-13.70;99.90;;;;;;4833181;29;20491;-84
2021/12/09 03:32:20;;;;;;;8.25;3.50;;;-13.70;99.90;;;;;;4833310;29;20489;-83
2021/12/09 03:34:48;;;;;;;6.95;2.97;;;-13.70;99.90;;;;;;4834372;29;20430;-83
2021/12/09 03:37:22;;;;;;;7.93;3.70;;;-13.70;99.90;;;;;;4828746;29;20424;-84
2021/12/09 03:39:51;;;;;;;6.82;3.47;;;-13.50;99.90;;;;;;4831972;29;20465;-84
2021/12/09 03:42:23;;;;;;;7.82;3.22;;;-13.60;99.90;;;;;;4834873;29;20486;-84
2021/12/09 03:44:52;;;;;;;7.37;3.10;;;-13.60;99.90;;;;;;4830392;29;20491;-85
2021/12/09 03:47:22;;;;;;;6.53;3.17;;;-13.60;99.90;;;;;;4832550;29;20423;-84
2021/12/09 03:49:50;;;;;;;7.88;3.33;;;-13.50;99.90;;;;;;4837527;29;20424;-83
2021/12/09 03:52:18;;;;;;;7.05;3.45;;;-13.60;99.90;;;;;;4833995;29;20811;-84
2021/12/09 03:54:46;;;;;;;7.50;3.20;;;-13.50;99.90;;;;;;4830395;29;20429;-85
2021/12/09 03:57:14;;;;;;;7.13;3.17;;;-13.50;99.90;;;;;;4832117;29;20427;-84
2021/12/09 03:59:43;;;;;;;5.95;3.20;;;-13.50;99.90;;;;;;4833792;29;20480;-84
2021/12/09 04:02:11;;;;;;;7.45;3.42;;;-13.40;99.90;;;;;;4846638;29;20442;-84
2021/12/09 04:04:39;;;;;;;6.60;3.28;;;-13.30;99.90;;;;;;4837788;29;20698;-85
2021/12/09 04:07:07;;;;;;;6.88;3.10;;;-13.30;99.90;;;;;;4832699;29;20428;-85
2021/12/09 04:09:35;;;;;;;6.65;3.40;;;-13.40;99.90;;;;;;4831184;29;20532;-85
2021/12/09 04:12:03;;;;;;;9.70;3.70;;;-13.20;99.90;;;;;;4833071;29;20484;-86
2021/12/09 04:14:31;;;;;;;7.18;3.33;;;-13.20;99.90;;;;;;4832957;29;20466;-85
2021/12/09 04:16:59;;;;;;;6.45;3.15;;;-13.20;99.90;;;;;;4832986;29;20437;-85
2021/12/09 04:19:26;;;;;;;6.50;3.50;;;-13.20;99.90;;;;;;4834759;29;20478;-86
2021/12/09 04:21:54;;;;;;;6.72;3.00;;;-13.30;99.90;;;;;;4835768;29;20437;-85
2021/12/09 04:24:22;;;;;;;6.25;3.00;;;-13.10;99.90;;;;;;4840969;29;20411;-85
2021/12/09 04:26:54;;;;;;;7.45;3.80;;;-13.30;99.90;;;;;;4831830;29;20441;-84
2021/12/09 04:29:22;;;;;;;8.27;3.88;;;-13.20;99.90;;;;;;4855598;29;20433;-84
2021/12/09 04:31:51;;;;;;;7.80;3.42;;;-13.20;99.90;;;;;;4830877;29;20419;-84
2021/12/09 04:34:20;;;;;;;7.35;3.55;;;-13.30;99.90;;;;;;4829237;29;20420;-83
2021/12/09 04:36:48;;;;;;;7.07;2.80;;;-13.20;99.90;;;;;;4834239;29;20885;-84
2021/12/09 04:39:16;;;;;;;7.40;3.58;;;-13.30;99.90;;;;;;4835047;29;20426;-86
2021/12/09 04:41:45;;;;;;;9.40;3.90;;;-13.30;99.90;;;;;;4833669;29;20450;-84
2021/12/09 04:44:13;;;;;;;8.87;3.90;;;-13.20;99.90;;;;;;4832221;29;20940;-84
2021/12/09 04:46:40;;;;;;;7.07;3.15;;;-13.10;99.90;;;;;;4831678;29;20416;-84
2021/12/09 04:49:08;;;;;;;8.77;4.13;;;-13.20;99.90;;;;;;4832653;29;20453;-84
2021/12/09 04:51:36;;;;;;;8.88;4.30;;;-13.30;99.90;;;;;;4827974;29;20754;-84
2021/12/09 04:54:05;;;;;;;7.72;3.08;;;-13.30;99.90;;;;;;4831095;29;20467;-84
2021/12/09 04:56:35;;;;;;;7.57;3.85;;;-13.40;99.90;;;;;;4839036;29;20418;-84
2021/12/09 04:59:04;;;;;;;7.00;3.40;;;-13.40;99.90;;;;;;4835848;29;20419;-84
2021/12/09 05:01:32;;;;;;;7.15;3.08;;;-13.40;99.90;;;;;;4834124;29;20418;-84
2021/12/09 05:04:01;;;;;;;8.82;3.72;;;-13.50;99.90;;;;;;4832111;29;20480;-85
2021/12/09 05:06:29;;;;;;;7.65;3.85;;;-13.30;99.90;;;;;;4830318;29;20472;-86
2021/12/09 05:09:05;;;;;;;6.95;3.22;;;-13.40;99.90;;;;;;4830159;29;20481;-85
2021/12/09 05:14:00;;;;;;;8.35;3.15;;;-13.20;99.90;;;;;;4831565;29;20437;-85
2021/12/09 05:16:28;;;;;;;10.77;4.55;;;-13.40;99.90;;;;;;4843473;29;20411;-84
2021/12/09 05:18:59;;;;;;;6.82;3.42;;;-13.20;99.90;;;;;;4830998;29;20489;-84
2021/12/09 05:21:37;;;;;;;7.20;3.53;;;-13.30;99.90;;;;;;4836701;29;20418;-84
2021/12/09 05:24:07;;;;;;;8.98;3.60;;;-13.30;99.90;;;;;;4831336;29;20870;-84
2021/12/09 05:26:42;;;;;;;7.55;3.40;;;-13.20;99.90;;;;;;4831664;29;20450;-84
2021/12/09 05:29:11;;;;;;;7.80;3.67;;;-13.20;99.90;;;;;;4838589;29;20419;-85
2021/12/09 05:34:28;;;;;;;8.02;3.00;;;-13.20;99.90;;;;;;4839546;29;20410;-85
2021/12/09 05:36:56;;;;;;;8.38;3.40;;;-13.30;99.90;;;;;;4830704;29;20412;-83
2021/12/09 05:39:24;;;;;;;7.07;3.13;;;-13.40;99.90;;;;;;4832699;29;20772;-84
2021/12/09 05:41:53;;;;;;;6.18;3.35;;;-13.20;99.90;;;;;;4830767;29;20403;-84
2021/12/09 05:44:22;;;;;;;8.45;3.42;;;-13.20;99.90;;;;;;4829870;29;20834;-84
2021/12/09 05:46:49;;;;;;;8.48;3.40;;;-13.20;99.90;;;;;;4830157;29;20496;-84
2021/12/09 05:49:17;;;;;;;8.30;3.70;;;-13.00;99.90;;;;;;4833252;29;20555;-85
2021/12/09 05:51:45;;;;;;;12.63;6.10;;;-13.10;99.90;;;;;;4832807;29;20911;-85
2021/12/09 05:54:13;;;;;;;8.63;3.75;;;-13.00;99.90;;;;;;4839057;29;20852;-85
2021/12/09 05:56:40;;;;;;;9.65;3.90;;;-13.00;99.90;;;;;;4833332;29;20492;-85
2021/12/09 05:59:09;;;;;;;8.05;4.28;;;-13.20;99.90;;;;;;4835560;29;20507;-85
2021/12/09 06:01:38;;;;;;;9.47;4.50;;;-13.20;99.90;;;;;;4838064;29;20825;-85
2021/12/09 06:04:07;;;;;;;7.28;3.22;;;-13.00;99.90;;;;;;4837080;29;20474;-85
2021/12/09 06:06:36;;;;;;;10.45;3.83;;;-13.00;99.90;;;;;;4820664;29;20483;-84
2021/12/09 06:09:06;;;;;;;6.75;3.20;;;-13.20;99.90;;;;;;4838110;29;20502;-84
2021/12/09 06:11:34;;;;;;;8.07;3.70;;;-13.20;99.90;;;;;;4839935;29;20437;-85
2021/12/09 06:14:03;;;;;;;9.25;4.30;;;-13.20;99.90;;;;;;4856398;29;20426;-85
2021/12/09 06:16:31;;;;;;;8.60;3.65;;;-13.30;99.90;;;;;;4833949;29;20434;-84
2021/12/09 06:19:01;;;;;;;9.48;4.38;;;-13.30;99.90;;;;;;4833336;29;20429;-81
2021/12/09 06:21:29;;;;;;;6.82;3.40;;;-13.20;99.90;;;;;;4839281;29;20786;-85
2021/12/09 06:23:59;;;;;;;8.73;4.00;;;-13.10;99.90;;;;;;4839945;29;20893;-85
2021/12/09 06:26:28;;;;;;;8.55;3.58;;;-13.10;99.90;;;;;;4840047;29;20465;-85
2021/12/09 06:28:55;;;;;;;8.10;4.00;;;-13.10;99.90;;;;;;4830502;29;20462;-81
2021/12/09 06:31:23;;;;;;;8.32;4.13;;;-13.20;99.90;;;;;;4834445;29;20430;-83
2021/12/09 06:33:52;;;;;;;7.97;3.50;;;-13.10;99.90;;;;;;4834729;29;20419;-84
2021/12/09 06:36:20;;;;;;;9.48;4.20;;;-13.20;99.90;;;;;;4837494;29;20407;-85
2021/12/09 06:38:47;;;;;;;8.23;4.07;;;-13.10;99.90;;;;;;4836714;29;20480;-85
2021/12/09 06:41:15;;;;;;;9.52;4.30;;;-13.30;99.90;;;;;;4832491;29;20427;-84
2021/12/09 06:43:43;;;;;;;10.23;3.80;;;-13.20;99.90;;;;;;4832580;29;20479;-84
2021/12/09 06:46:12;;;;;;;7.00;3.58;;;-13.20;99.90;;;;;;4838434;29;20761;-85
2021/12/09 06:48:40;;;;;;;8.50;4.00;;;-13.10;99.90;;;;;;4837176;29;20484;-84
2021/12/09 06:51:09;;;;;;;9.73;4.00;;;-13.20;99.90;;;;;;4830398;29;20438;-84
2021/12/09 06:53:37;;;;;;;7.77;3.40;;;-13.20;99.90;;;;;;4835163;29;20410;-84
2021/12/09 06:56:06;;;;;;;156.75;87.82;;;-13.30;99.90;;;;;;4834622;29;20514;-85
2021/12/09 06:58:34;;;;;;;52.65;38.25;;;-13.20;99.90;;;;;;4833450;29;20420;-83
2021/12/09 07:01:04;;;;;;;24.08;19.05;;;-13.20;99.90;;;;;;4849714;29;20522;-83
2021/12/09 07:03:32;;;;;;;15.88;12.15;;;-13.10;99.90;;;;;;4849067;29;20428;-84
2021/12/09 07:06:06;;;;;;;19.08;13.68;;;-13.00;99.90;;;;;;4838405;29;20402;-83
2021/12/09 07:08:36;;;;;;;25.00;22.27;;;-13.10;99.90;;;;;;4833214;29;20422;-84
2021/12/09 07:11:04;;;;;;;18.17;14.48;;;-13.20;99.90;;;;;;4834967;29;20476;-84
2021/12/09 07:13:32;;;;;;;8.80;4.57;;;-13.10;99.90;;;;;;4838421;29;20474;-84
2021/12/09 07:16:00;;;;;;;12.82;8.35;;;-13.10;99.90;;;;;;4831891;29;20412;-84
2021/12/09 07:18:28;;;;;;;11.00;5.50;;;-13.00;99.90;;;;;;4832134;29;20420;-85
2021/12/09 07:20:56;;;;;;;10.77;6.40;;;-13.20;99.90;;;;;;4840986;29;20417;-84
2021/12/09 07:23:24;;;;;;;10.35;5.75;;;-13.10;99.90;;;;;;4832716;29;20888;-83
2021/12/09 07:25:52;;;;;;;18.65;14.93;;;-13.00;99.90;;;;;;4829478;29;20448;-82
2021/12/09 07:28:19;;;;;;;11.02;6.72;;;-12.90;99.90;;;;;;4833763;29;20422;-86
2021/12/09 07:30:47;;;;;;;9.18;5.95;;;-12.80;99.90;;;;;;4831884;29;20422;-85
2021/12/09 07:33:15;;;;;;;11.10;6.65;;;-12.90;99.90;;;;;;4831729;29;20416;-85
2021/12/09 07:35:43;;;;;;;11.88;6.88;;;-12.90;99.90;;;;;;4832071;29;20410;-84
2021/12/09 07:38:14;;;;;;;11.75;6.45;;;-13.00;99.90;;;;;;4837615;29;20425;-85
2021/12/09 07:40:42;;;;;;;9.45;5.95;;;-12.90;99.90;;;;;;4833839;29;20502;-83
2021/12/09 07:43:09;;;;;;;10.77;5.03;;;-12.80;99.90;;;;;;4838670;29;20442;-84
2021/12/09 07:45:37;;;;;;;11.18;5.03;;;-12.80;99.90;;;;;;4856431;29;20418;-85
2021/12/09 07:48:05;;;;;;;9.82;4.80;;;-12.80;99.90;;;;;;4839129;29;20498;-85
2021/12/09 07:50:33;;;;;;;9.07;4.38;;;-12.80;99.90;;;;;;4841101;29;20429;-84
2021/12/09 07:53:01;;;;;;;8.93;4.75;;;-12.90;99.90;;;;;;4833642;29;20461;-83
2021/12/09 07:55:29;;;;;;;11.10;5.30;;;-12.80;99.90;;;;;;4834294;29;20402;-85
2021/12/09 07:57:57;;;;;;;13.03;6.37;;;-12.80;99.90;;;;;;4840747;29;20902;-83
2021/12/09 08:00:27;;;;;;;10.95;5.93;;;-12.70;99.90;;;;;;4832471;29;20416;-83
2021/12/09 08:02:56;;;;;;;11.43;5.50;;;-12.70;99.90;;;;;;4839121;29;20428;-83
2021/12/09 08:05:25;;;;;;;12.65;5.90;;;-12.80;99.90;;;;;;4838250;29;20423;-85
2021/12/09 08:07:53;;;;;;;11.00;5.40;;;-12.70;99.90;;;;;;4834543;29;20983;-85
2021/12/09 08:10:22;;;;;;;11.63;5.80;;;-12.70;99.90;;;;;;4832085;29;20488;-85
2021/12/09 08:12:51;;;;;;;11.65;5.40;;;-12.70;99.90;;;;;;4833235;29;20425;-84
2021/12/09 08:15:34;;;;;;;13.75;6.18;;;-12.80;99.90;;;;;;4835305;29;20414;-85
2021/12/09 08:20:48;;;;;;;13.90;6.28;;;-12.80;99.90;;;;;;4834940;29;20440;-84
2021/12/09 08:23:16;;;;;;;12.88;5.68;;;-12.80;99.90;;;;;;4840083;29;20426;-84
2021/12/09 08:25:45;;;;;;;13.23;5.68;;;-12.70;99.90;;;;;;4834967;29;20431;-84
2021/12/09 08:28:13;;;;;;;13.17;6.60;;;-12.70;99.90;;;;;;4848585;29;20828;-84
2021/12/09 08:30:40;;;;;;;11.97;5.70;;;-12.70;99.90;;;;;;4839727;29;20422;-84
2021/12/09 08:33:19;;;;;;;14.15;6.82;;;-12.80;99.90;;;;;;4829735;29;20543;-85
2021/12/09 08:35:47;;;;;;;15.10;7.10;;;-12.70;99.90;;;;;;4852465;29;20480;-85
2021/12/09 08:38:15;;;;;;;13.07;6.20;;;-12.50;99.90;;;;;;4831939;29;20427;-86
2021/12/09 08:40:43;;;;;;;14.43;6.40;;;-12.50;99.90;;;;;;4830517;29;20424;-84
2021/12/09 08:43:11;;;;;;;11.68;5.10;;;-12.70;99.90;;;;;;4830492;29;20463;-85
2021/12/09 08:45:39;;;;;;;11.73;5.47;;;-12.80;99.90;;;;;;4832219;29;20426;-83
2021/12/09 08:48:08;;;;;;;13.03;5.87;;;-13.00;99.90;;;;;;4833528;29;20509;-85
2021/12/09 08:50:36;;;;;;;11.27;5.30;;;-12.90;99.90;;;;;;4808192;29;20422;-84
2021/12/09 08:53:07;;;;;;;12.87;6.00;;;-12.90;99.90;;;;;;4831708;29;20406;-85
2021/12/09 08:55:36;;;;;;;13.70;6.22;;;-12.90;99.90;;;;;;4834819;29;20427;-85
2021/12/09 08:58:04;;;;;;;13.70;6.55;;;-12.70;99.90;;;;;;4846761;29;20445;-85
2021/12/09 09:00:33;;;;;;;10.80;5.53;;;-12.70;99.90;;;;;;4836470;29;20415;-86
2021/12/09 09:03:01;;;;;;;14.50;6.28;;;-12.60;99.90;;;;;;4844511;29;20439;-85
2021/12/09 09:05:30;;;;;;;10.43;5.43;;;-12.70;99.90;;;;;;4831977;29;20514;-86
2021/12/09 09:07:57;;;;;;;13.80;6.13;;;-12.60;99.90;;;;;;4834950;29;20435;-84
2021/12/09 09:10:28;;;;;;;12.73;5.25;;;-12.70;99.90;;;;;;4839644;29;20945;-85
2021/12/09 09:12:56;;;;;;;11.82;5.25;;;-12.60;99.90;;;;;;4822330;29;20905;-84
2021/12/09 09:15:25;;;;;;;11.60;4.95;;;-12.70;99.90;;;;;;4831051;29;20429;-85
2021/12/09 09:17:54;;;;;;;11.20;4.90;;;-12.70;99.90;;;;;;4830492;29;20422;-85
2021/12/09 09:20:25;;;;;;;11.77;5.63;;;-12.80;99.90;;;;;;4829377;29;20402;-84
2021/12/09 09:22:53;;;;;;;12.37;5.40;;;-12.60;99.90;;;;;;4836537;29;20402;-85
2021/12/09 09:25:29;;;;;;;11.20;4.70;;;-12.70;99.90;;;;;;4839535;29;20429;-84
2021/12/09 09:28:00;;;;;;;10.68;5.40;;;-12.60;99.90;;;;;;4829930;29;20688;-85
2021/12/09 09:30:35;;;;;;;11.57;6.00;;;-12.40;99.90;;;;;;4836197;29;20451;-84
2021/12/09 09:33:05;;;;;;;11.05;5.18;;;-12.30;99.90;;;;;;4835394;29;20466;-84
2021/12/09 09:35:33;;;;;;;11.25;5.47;;;-12.40;99.90;;;;;;4839629;29;20409;-85
2021/12/09 09:38:01;;;;;;;11.75;5.40;;;-12.50;99.90;;;;;;4830797;29;20394;-85
2021/12/09 09:40:41;;;;;;;10.75;4.82;;;-12.50;99.90;;;;;;4831619;29;20475;-85
2021/12/09 09:43:55;;;;;;;12.98;5.90;;;-12.60;99.90;;;;;;4833247;29;20893;-84
2021/12/09 09:46:05;;;;;;;11.85;5.53;;;-12.70;99.90;;;;;;4834137;29;20501;-84
2021/12/09 09:48:34;;;;;;;12.20;6.18;;;-12.50;99.90;;;;;;4844607;29;20406;-84
2021/12/09 09:51:03;;;;;;;11.95;5.63;;;-12.40;99.90;;;;;;4837721;29;20433;-85
2021/12/09 09:53:31;;;;;;;10.90;5.18;;;-12.40;99.90;;;;;;4832630;29;20462;-85
2021/12/09 09:55:58;;;;;;;10.87;5.30;;;-12.40;99.90;;;;;;4835069;29;20484;-84
2021/12/09 09:58:28;;;;;;;11.85;5.78;;;-12.40;99.90;;;;;;4835928;29;20399;-85
2021/12/09 10:00:55;;;;;;;11.75;5.53;;;-12.40;99.90;;;;;;4831852;29;20512;-82
2021/12/09 10:03:29;;;;;;;12.15;5.28;;;-12.40;99.90;;;;;;4847146;29;20520;-84
2021/12/09 10:05:59;;;;;;;12.93;5.95;;;-12.30;99.90;;;;;;4828545;29;20416;-83
2021/12/09 10:08:27;;;;;;;11.98;5.70;;;-12.20;99.90;;;;;;4829511;29;20422;-84
2021/12/09 10:10:54;;;;;;;11.00;5.38;;;-12.10;99.90;;;;;;4831003;29;20483;-85
2021/12/09 10:13:35;;;;;;;12.77;5.43;;;-12.10;99.90;;;;;;4830533;29;20767;-84
2021/12/09 10:16:14;;;;;;;11.52;5.35;;;-12.00;99.90;;;;;;4839612;29;20747;-84
2021/12/09 10:18:44;;;;;;;10.63;5.07;;;-12.00;99.90;;;;;;4835508;29;20469;-84
2021/12/09 10:21:34;;;;;;;12.25;5.85;;;-11.90;99.90;;;;;;4826773;29;20433;-85
2021/12/09 10:24:06;;;;;;;10.90;5.25;;;-11.90;99.90;;;;;;4839512;29;20904;-85
2021/12/09 10:26:39;;;;;;;9.82;5.15;;;-11.90;99.90;;;;;;4836947;29;20479;-85
2021/12/09 10:29:24;;;;;;;9.43;4.83;;;-11.70;99.90;;;;;;4827301;29;20491;-84
2021/12/09 10:32:00;;;;;;;10.68;5.50;;;-11.70;99.90;;;;;;4830579;29;20471;-85
2021/12/09 10:34:37;;;;;;;10.23;5.18;;;-11.60;99.90;;;;;;4831179;29;20419;-85
2021/12/09 10:37:21;;;;;;;13.13;5.18;;;-11.60;99.90;;;;;;4841486;29;20793;-85
2021/12/09 10:40:07;;;;;;;11.80;5.55;;;-11.50;99.90;;;;;;4833005;29;20420;-85
2021/12/09 10:42:39;;;;;;;11.15;5.05;;;-11.50;99.90;;;;;;4833446;29;20420;-84
2021/12/09 10:45:20;;;;;;;21.55;6.05;;;-11.60;99.90;;;;;;4834553;29;20419;-86
2021/12/09 10:47:55;;;;;;;11.35;4.80;;;-11.70;99.90;;;;;;4830336;29;20428;-85
2021/12/09 10:50:35;;;;;;;12.38;5.47;;;-11.60;99.90;;;;;;4842087;29;20414;-84
2021/12/09 10:56:10;;;;;;;10.98;5.20;;;-11.40;99.90;;;;;;4831913;29;20426;-85
2021/12/09 10:58:41;;;;;;;10.60;5.13;;;-11.40;99.90;;;;;;4837980;29;20447;-86
2021/12/09 11:01:12;;;;;;;10.05;5.18;;;-11.50;99.90;;;;;;4834146;29;20967;-85
2021/12/09 11:03:45;;;;;;;11.13;5.55;;;-11.50;99.90;;;;;;4845831;29;20432;-84
2021/12/09 11:06:19;;;;;;;11.40;5.85;;;-11.30;99.90;;;;;;4850225;29;20423;-85
2021/12/09 11:08:49;;;;;;;11.18;5.50;;;-11.30;99.90;;;;;;4839507;29;20788;-85
2021/12/09 11:11:18;;;;;;;10.07;4.80;;;-11.20;99.90;;;;;;4839058;29;20428;-84
2021/12/09 11:13:51;;;;;;;10.07;5.05;;;-11.30;99.90;;;;;;4831061;29;20850;-84
2021/12/09 11:16:31;;;;;;;12.02;5.13;;;-11.20;99.90;;;;;;4840917;29;20447;-84
2021/12/09 11:19:12;;;;;;;10.63;4.90;;;-11.20;99.90;;;;;;4843045;29;20447;-85
2021/12/09 11:21:53;;;;;;;10.50;5.45;;;-11.20;99.90;;;;;;4837411;29;20427;-85
2021/12/09 11:24:23;;;;;;;10.35;4.90;;;-11.10;99.90;;;;;;4833852;29;20447;-84
2021/12/09 11:29:28;;;;;;;12.85;6.13;;;-10.90;99.90;;;;;;4831489;29;20420;-85
2021/12/09 11:32:30;;;;;;;10.80;5.43;;;-10.90;99.90;;;;;;4835880;29;20495;-85
2021/12/09 11:35:10;;;;;;;11.35;5.60;;;-10.80;99.90;;;;;;4839628;29;20410;-86
2021/12/09 11:38:18;;;;;;;16.23;6.07;;;-10.80;99.90;;;;;;4838822;29;20442;-86
2021/12/09 11:40:50;;;;;;;10.97;5.47;;;-10.70;99.90;;;;;;4837387;29;20425;-86
2021/12/09 11:43:21;;;;;;;11.77;5.88;;;-10.80;99.90;;;;;;4834578;29;20887;-86
2021/12/09 11:45:53;;;;;;;12.03;5.63;;;-10.70;99.90;;;;;;4834592;29;21022;-86
2021/12/09 11:48:22;;;;;;;11.93;5.97;;;-10.70;99.90;;;;;;4833128;29;20402;-84
2021/12/09 11:50:54;;;;;;;11.80;5.60;;;-10.70;99.90;;;;;;4836100;29;20403;-85
2021/12/09 11:53:23;;;;;;;12.32;6.20;;;-10.90;99.90;;;;;;4836597;29;20429;-85
2021/12/09 11:56:07;;;;;;;15.68;5.60;;;-10.80;99.90;;;;;;4836963;29;20470;-84
2021/12/09 11:58:43;;;;;;;13.98;6.43;;;-10.80;99.90;;;;;;4837182;29;20422;-85
2021/12/09 12:13:50;;;;;;;12.00;5.68;;;-10.70;99.90;;;;;;4840983;29;20979;-81
2021/12/09 12:19:28;;;;;;;12.50;6.35;;;-10.70;99.90;;;;;;4841428;29;20778;-83
2021/12/09 12:22:08;;;;;;;12.93;6.53;;;-10.70;99.90;;;;;;4833817;29;20489;-84
2021/12/09 12:25:49;;;;;;;12.50;6.03;;;-10.70;99.90;;;;;;4824148;29;20804;-83
2021/12/09 12:27:49;;;;;;;12.82;6.43;;;-10.60;99.90;;;;;;4827933;29;20470;-85
2021/12/09 12:30:40;;;;;;;14.65;6.85;;;-10.60;99.90;;;;;;4836766;29;20438;-84
2021/12/09 12:36:52;;;;;;;13.77;6.35;;;-10.60;99.90;;;;;;4832505;29;20480;-84
2021/12/09 12:39:01;;;;;;;13.80;6.10;;;-10.60;99.90;;;;;;4827603;29;20502;-85
2021/12/09 12:41:29;;;;;;;13.73;6.90;;;-10.80;99.90;;;;;;4838661;29;20698;-86
2021/12/09 12:44:05;;;;;;;12.55;6.35;;;-10.80;99.90;;;;;;4830451;29;20833;-86
2021/12/09 12:46:52;;;;;;;14.57;6.80;;;-10.90;99.90;;;;;;4830476;29;20840;-84
2021/12/09 12:49:35;;;;;;;14.85;7.43;;;-11.00;99.90;;;;;;4833399;29;20523;-85
2021/12/09 12:52:15;;;;;;;12.55;6.43;;;-11.00;99.90;;;;;;4832878;29;20428;-84
2021/12/09 12:54:55;;;;;;;13.27;6.10;;;-11.10;99.90;;;;;;4839720;29;20945;-85
2021/12/09 12:57:32;;;;;;;12.40;5.70;;;-11.30;99.90;;;;;;4830822;29;20414;-84
2021/12/09 13:00:29;;;;;;;13.32;6.28;;;-11.40;99.90;;;;;;4836360;29;20442;-84
2021/12/09 13:05:49;;;;;;;12.93;6.03;;;-11.60;99.90;;;;;;4831177;29;20416;-83
2021/12/09 13:09:13;;;;;;;11.68;5.78;;;-11.60;99.90;;;;;;4835407;29;20434;-84
2021/12/09 13:12:02;;;;;;;13.27;6.22;;;-11.60;99.90;;;;;;4830283;29;20921;-85
2021/12/09 13:14:33;;;;;;;12.77;5.65;;;-11.50;99.90;;;;;;4845859;29;20537;-84
2021/12/09 13:17:19;;;;;;;11.93;5.80;;;-11.60;99.90;;;;;;4843285;29;20427;-84
2021/12/09 13:20:05;;;;;;;11.07;5.55;;;-11.90;99.90;;;;;;4828363;29;20400;-83
2021/12/09 13:22:39;;;;;;;12.88;6.35;;;-11.90;99.90;;;;;;4829138;29;20534;-84
2021/12/09 13:25:16;;;;;;;12.60;5.87;;;-11.90;99.90;;;;;;4832221;29;21012;-85
2021/12/09 13:28:07;;;;;;;11.77;6.30;;;-12.00;99.90;;;;;;4848809;29;20426;-85